sensor_id;sensor_type;location;lat;lon;timestamp;pressure;altitude;pressure_sealevel;temperature;humidity
65173;BME280;51758;52.218;5.172;2022-08-26T00:01:51;101469.63;;;21.55;99.83
65173;BME280;51758;52.218;5.172;2022-08-26T00:04:19;101467.66;;;21.62;99.04
65173;BME280;51758;52.218;5.172;2022-08-26T00:06:46;101469.28;;;21.63;99.75
65173;BME280;51758;52.218;5.172;2022-08-26T00:09:14;101476.09;;;21.59;99.65
65173;BME280;51758;52.218;5.172;2022-08-26T00:11:42;101476.91;;;21.60;100.00
65173;BME280;51758;52.218;5.172;2022-08-26T00:14:09;101481.59;;;21.69;99.65
65173;BME280;51758;52.218;5.172;2022-08-26T00:16:38;101470.09;;;21.64;99.68
65173;BME280;51758;52.218;5.172;2022-08-26T00:19:14;101474.72;;;21.57;99.58
65173;BME280;51758;52.218;5.172;2022-08-26T00:21:42;101470.31;;;21.62;99.89
65173;BME280;51758;52.218;5.172;2022-08-26T00:24:09;101470.63;;;21.66;99.84
65173;BME280;51758;52.218;5.172;2022-08-26T00:26:37;101472.59;;;21.70;98.62
65173;BME280;51758;52.218;5.172;2022-08-26T00:29:06;101460.13;;;21.71;98.66
65173;BME280;51758;52.218;5.172;2022-08-26T00:31:34;101461.03;;;21.76;97.98
65173;BME280;51758;52.218;5.172;2022-08-26T00:34:03;101463.13;;;21.74;97.55
65173;BME280;51758;52.218;5.172;2022-08-26T00:36:31;101468.66;;;21.73;97.65
65173;BME280;51758;52.218;5.172;2022-08-26T00:38:58;101469.25;;;21.75;97.43
65173;BME280;51758;52.218;5.172;2022-08-26T00:41:27;101461.16;;;21.70;98.29
65173;BME280;51758;52.218;5.172;2022-08-26T00:43:54;101462.78;;;21.71;97.99
65173;BME280;51758;52.218;5.172;2022-08-26T00:46:24;101470.16;;;21.69;99.14
65173;BME280;51758;52.218;5.172;2022-08-26T00:48:56;101473.06;;;21.67;98.41
65173;BME280;51758;52.218;5.172;2022-08-26T00:51:27;101477.91;;;21.70;98.88
65173;BME280;51758;52.218;5.172;2022-08-26T00:54:01;101469.88;;;21.65;99.63
65173;BME280;51758;52.218;5.172;2022-08-26T00:56:31;101467.75;;;21.67;98.96
65173;BME280;51758;52.218;5.172;2022-08-26T00:59:01;101474.91;;;21.67;98.88
65173;BME280;51758;52.218;5.172;2022-08-26T01:01:29;101478.19;;;21.57;99.62
65173;BME280;51758;52.218;5.172;2022-08-26T01:03:58;101474.03;;;21.61;99.16
65173;BME280;51758;52.218;5.172;2022-08-26T01:06:27;101472.75;;;21.64;98.43
65173;BME280;51758;52.218;5.172;2022-08-26T01:08:56;101470.63;;;21.66;98.42
65173;BME280;51758;52.218;5.172;2022-08-26T01:11:24;101474.38;;;21.65;98.83
65173;BME280;51758;52.218;5.172;2022-08-26T01:13:51;101467.91;;;21.61;99.35
65173;BME280;51758;52.218;5.172;2022-08-26T01:16:21;101471.94;;;21.63;98.81
65173;BME280;51758;52.218;5.172;2022-08-26T01:18:50;101463.75;;;21.65;98.67
65173;BME280;51758;52.218;5.172;2022-08-26T01:21:21;101462.25;;;21.57;99.26
65173;BME280;51758;52.218;5.172;2022-08-26T01:23:56;101464.09;;;21.57;99.32
65173;BME280;51758;52.218;5.172;2022-08-26T01:26:26;101467.31;;;21.59;98.74
65173;BME280;51758;52.218;5.172;2022-08-26T01:28:55;101460.03;;;21.54;99.38
65173;BME280;51758;52.218;5.172;2022-08-26T01:31:24;101458.78;;;21.57;99.35
65173;BME280;51758;52.218;5.172;2022-08-26T01:33:54;101466.97;;;21.55;99.42
65173;BME280;51758;52.218;5.172;2022-08-26T01:36:25;101464.00;;;21.52;99.40
65173;BME280;51758;52.218;5.172;2022-08-26T01:38:52;101461.34;;;21.52;99.92
65173;BME280;51758;52.218;5.172;2022-08-26T01:41:21;101468.00;;;21.54;99.06
65173;BME280;51758;52.218;5.172;2022-08-26T01:43:54;101470.13;;;21.52;99.28
65173;BME280;51758;52.218;5.172;2022-08-26T01:46:23;101474.38;;;21.53;99.40
65173;BME280;51758;52.218;5.172;2022-08-26T01:48:52;101469.31;;;21.52;98.75
65173;BME280;51758;52.218;5.172;2022-08-26T01:51:21;101467.69;;;21.51;99.20
65173;BME280;51758;52.218;5.172;2022-08-26T01:53:49;101467.47;;;21.52;99.36
65173;BME280;51758;52.218;5.172;2022-08-26T01:56:18;101469.31;;;21.52;99.74
65173;BME280;51758;52.218;5.172;2022-08-26T01:58:50;101472.69;;;21.35;100.00
65173;BME280;51758;52.218;5.172;2022-08-26T02:01:19;101470.94;;;21.41;100.00
65173;BME280;51758;52.218;5.172;2022-08-26T02:03:48;101478.59;;;21.37;100.00
65173;BME280;51758;52.218;5.172;2022-08-26T02:06:17;101474.09;;;21.38;100.00
65173;BME280;51758;52.218;5.172;2022-08-26T02:08:46;101471.44;;;21.38;99.98
65173;BME280;51758;52.218;5.172;2022-08-26T02:11:15;101475.69;;;21.39;99.96
65173;BME280;51758;52.218;5.172;2022-08-26T02:13:44;101471.50;;;21.43;99.97
65173;BME280;51758;52.218;5.172;2022-08-26T02:16:15;101470.72;;;21.42;100.00
65173;BME280;51758;52.218;5.172;2022-08-26T02:18:45;101479.16;;;21.39;100.00
65173;BME280;51758;52.218;5.172;2022-08-26T02:21:14;101481.81;;;21.39;100.00
65173;BME280;51758;52.218;5.172;2022-08-26T02:23:42;101481.56;;;21.41;99.74
65173;BME280;51758;52.218;5.172;2022-08-26T02:26:11;101483.41;;;21.40;99.83
65173;BME280;51758;52.218;5.172;2022-08-26T02:28:45;101481.03;;;21.27;100.00
65173;BME280;51758;52.218;5.172;2022-08-26T02:31:17;101486.44;;;21.32;100.00
65173;BME280;51758;52.218;5.172;2022-08-26T02:33:46;101483.56;;;21.34;100.00
65173;BME280;51758;52.218;5.172;2022-08-26T02:36:17;101475.34;;;21.35;100.00
65173;BME280;51758;52.218;5.172;2022-08-26T02:38:44;101481.25;;;21.37;100.00
65173;BME280;51758;52.218;5.172;2022-08-26T02:41:13;101470.28;;;21.34;100.00
65173;BME280;51758;52.218;5.172;2022-08-26T02:43:43;101465.19;;;21.32;100.00
65173;BME280;51758;52.218;5.172;2022-08-26T02:46:10;101471.53;;;21.31;100.00
65173;BME280;51758;52.218;5.172;2022-08-26T02:48:48;101346.38;;;20.53;100.00
65173;BME280;51758;52.218;5.172;2022-08-26T02:51:15;101466.47;;;21.30;100.00
65173;BME280;51758;52.218;5.172;2022-08-26T02:53:42;101463.72;;;21.25;100.00
65173;BME280;51758;52.218;5.172;2022-08-26T02:56:10;101463.81;;;21.30;100.00
65173;BME280;51758;52.218;5.172;2022-08-26T02:58:37;101461.16;;;21.30;100.00
65173;BME280;51758;52.218;5.172;2022-08-26T03:01:06;101469.34;;;21.28;100.00
65173;BME280;51758;52.218;5.172;2022-08-26T03:03:34;101468.88;;;21.31;100.00
65173;BME280;51758;52.218;5.172;2022-08-26T03:06:02;101470.50;;;21.32;100.00
65173;BME280;51758;52.218;5.172;2022-08-26T03:08:30;101465.19;;;21.32;99.80
65173;BME280;51758;52.218;5.172;2022-08-26T03:10:57;101464.63;;;21.19;100.00
65173;BME280;51758;52.218;5.172;2022-08-26T03:13:27;101473.75;;;21.23;100.00
65173;BME280;51758;52.218;5.172;2022-08-26T03:15:55;101471.44;;;21.26;100.00
65173;BME280;51758;52.218;5.172;2022-08-26T03:18:22;101472.00;;;21.05;100.00
65173;BME280;51758;52.218;5.172;2022-08-26T03:20:50;101475.34;;;21.12;100.00
65173;BME280;51758;52.218;5.172;2022-08-26T03:23:18;101476.63;;;21.21;100.00
65173;BME280;51758;52.218;5.172;2022-08-26T03:25:47;101472.72;;;21.24;100.00
65173;BME280;51758;52.218;5.172;2022-08-26T03:28:14;101474.34;;;21.25;100.00
65173;BME280;51758;52.218;5.172;2022-08-26T03:30:44;101478.25;;;21.22;100.00
65173;BME280;51758;52.218;5.172;2022-08-26T03:33:11;101484.72;;;21.26;100.00
65173;BME280;51758;52.218;5.172;2022-08-26T03:35:40;101474.78;;;21.22;100.00
65173;BME280;51758;52.218;5.172;2022-08-26T03:38:08;101470.28;;;21.22;100.00
65173;BME280;51758;52.218;5.172;2022-08-26T03:40:37;101468.66;;;21.21;100.00
65173;BME280;51758;52.218;5.172;2022-08-26T03:43:06;101466.38;;;21.25;100.00
65173;BME280;51758;52.218;5.172;2022-08-26T03:45:35;101474.09;;;21.15;100.00
65173;BME280;51758;52.218;5.172;2022-08-26T03:48:03;101469.69;;;21.08;100.00
65173;BME280;51758;52.218;5.172;2022-08-26T03:50:30;101468.19;;;21.13;100.00
65173;BME280;51758;52.218;5.172;2022-08-26T03:52:59;101476.16;;;21.13;100.00
65173;BME280;51758;52.218;5.172;2022-08-26T03:55:29;101481.47;;;21.13;100.00
65173;BME280;51758;52.218;5.172;2022-08-26T03:57:58;101471.31;;;21.09;100.00
65173;BME280;51758;52.218;5.172;2022-08-26T04:00:27;101473.97;;;21.09;100.00
65173;BME280;51758;52.218;5.172;2022-08-26T04:02:55;101475.13;;;21.14;100.00
65173;BME280;51758;52.218;5.172;2022-08-26T04:05:23;101467.50;;;21.05;100.00
65173;BME280;51758;52.218;5.172;2022-08-26T04:07:50;101448.56;;;20.90;100.00
65173;BME280;51758;52.218;5.172;2022-08-26T04:10:18;101467.19;;;21.02;100.00
65173;BME280;51758;52.218;5.172;2022-08-26T04:12:54;101463.81;;;20.95;100.00
65173;BME280;51758;52.218;5.172;2022-08-26T04:15:32;101458.97;;;20.92;100.00
65173;BME280;51758;52.218;5.172;2022-08-26T04:17:59;101463.13;;;20.88;100.00
65173;BME280;51758;52.218;5.172;2022-08-26T04:20:28;101460.13;;;20.84;100.00
65173;BME280;51758;52.218;5.172;2022-08-26T04:22:55;101467.72;;;20.92;100.00
65173;BME280;51758;52.218;5.172;2022-08-26T04:25:22;101472.00;;;20.93;100.00
65173;BME280;51758;52.218;5.172;2022-08-26T04:27:50;101454.13;;;20.89;100.00
65173;BME280;51758;52.218;5.172;2022-08-26T04:30:18;101463.47;;;20.91;100.00
65173;BME280;51758;52.218;5.172;2022-08-26T04:32:47;101461.84;;;20.90;100.00
65173;BME280;51758;52.218;5.172;2022-08-26T04:35:15;101465.88;;;20.93;100.00
65173;BME280;51758;52.218;5.172;2022-08-26T04:37:42;101465.56;;;20.89;100.00
65173;BME280;51758;52.218;5.172;2022-08-26T04:40:10;101464.03;;;20.82;100.00
65173;BME280;51758;52.218;5.172;2022-08-26T04:42:37;101464.41;;;20.85;100.00
65173;BME280;51758;52.218;5.172;2022-08-26T04:45:05;101467.63;;;20.87;100.00
65173;BME280;51758;52.218;5.172;2022-08-26T04:47:35;101480.69;;;20.89;100.00
65173;BME280;51758;52.218;5.172;2022-08-26T04:50:05;101468.22;;;20.89;100.00
65173;BME280;51758;52.218;5.172;2022-08-26T04:52:32;101471.31;;;20.86;100.00
65173;BME280;51758;52.218;5.172;2022-08-26T04:55:00;101475.00;;;20.85;100.00
65173;BME280;51758;52.218;5.172;2022-08-26T04:57:31;101475.81;;;20.86;100.00
65173;BME280;51758;52.218;5.172;2022-08-26T04:59:58;101476.41;;;20.88;100.00
65173;BME280;51758;52.218;5.172;2022-08-26T05:02:26;101487.94;;;20.82;100.00
65173;BME280;51758;52.218;5.172;2022-08-26T05:04:54;101484.22;;;20.83;100.00
65173;BME280;51758;52.218;5.172;2022-08-26T05:07:22;101485.50;;;20.80;100.00
65173;BME280;51758;52.218;5.172;2022-08-26T05:09:50;101484.47;;;20.81;100.00
65173;BME280;51758;52.218;5.172;2022-08-26T05:12:17;101488.63;;;20.77;100.00
65173;BME280;51758;52.218;5.172;2022-08-26T05:14:45;101489.88;;;20.74;100.00
65173;BME280;51758;52.218;5.172;2022-08-26T05:17:13;101327.22;;;19.62;100.00
65173;BME280;51758;52.218;5.172;2022-08-26T05:19:41;101489.97;;;20.68;100.00
65173;BME280;51758;52.218;5.172;2022-08-26T05:22:09;101494.72;;;20.66;100.00
65173;BME280;51758;52.218;5.172;2022-08-26T05:24:39;101488.84;;;20.64;100.00
65173;BME280;51758;52.218;5.172;2022-08-26T05:27:08;101500.94;;;20.60;100.00
65173;BME280;51758;52.218;5.172;2022-08-26T05:29:37;101500.34;;;20.58;100.00
65173;BME280;51758;52.218;5.172;2022-08-26T05:32:05;101337.53;;;19.52;100.00
65173;BME280;51758;52.218;5.172;2022-08-26T05:34:32;101508.19;;;20.53;100.00
65173;BME280;51758;52.218;5.172;2022-08-26T05:37:04;101502.06;;;20.52;100.00
65173;BME280;51758;52.218;5.172;2022-08-26T05:39:31;101514.75;;;20.50;100.00
65173;BME280;51758;52.218;5.172;2022-08-26T05:42:00;101517.53;;;20.55;100.00
65173;BME280;51758;52.218;5.172;2022-08-26T05:44:29;101512.00;;;20.57;100.00
65173;BME280;51758;52.218;5.172;2022-08-26T05:47:16;101529.16;;;20.54;100.00
65173;BME280;51758;52.218;5.172;2022-08-26T05:49:44;101526.75;;;20.53;100.00
65173;BME280;51758;52.218;5.172;2022-08-26T05:52:17;101521.34;;;20.59;100.00
65173;BME280;51758;52.218;5.172;2022-08-26T05:54:44;101539.13;;;20.59;100.00
65173;BME280;51758;52.218;5.172;2022-08-26T05:57:14;101519.16;;;20.68;100.00
65173;BME280;51758;52.218;5.172;2022-08-26T05:59:43;101522.53;;;20.75;100.00
65173;BME280;51758;52.218;5.172;2022-08-26T06:02:11;101519.53;;;20.83;100.00
65173;BME280;51758;52.218;5.172;2022-08-26T06:04:38;101525.53;;;20.90;100.00
65173;BME280;51758;52.218;5.172;2022-08-26T06:07:06;101508.94;;;20.83;100.00
65173;BME280;51758;52.218;5.172;2022-08-26T06:09:38;101524.50;;;20.91;100.00
65173;BME280;51758;52.218;5.172;2022-08-26T06:12:05;101528.31;;;20.95;100.00
65173;BME280;51758;52.218;5.172;2022-08-26T06:14:34;101533.28;;;21.03;100.00
65173;BME280;51758;52.218;5.172;2022-08-26T06:17:02;101529.94;;;21.08;99.65
65173;BME280;51758;52.218;5.172;2022-08-26T06:19:29;101535.94;;;21.03;99.67
65173;BME280;51758;52.218;5.172;2022-08-26T06:21:59;101527.28;;;21.08;99.96
65173;BME280;51758;52.218;5.172;2022-08-26T06:24:48;101531.00;;;21.19;99.00
65173;BME280;51758;52.218;5.172;2022-08-26T06:27:35;101532.25;;;21.16;99.58
65173;BME280;51758;52.218;5.172;2022-08-26T06:30:04;101538.88;;;21.25;98.77
65173;BME280;51758;52.218;5.172;2022-08-26T06:32:32;101541.63;;;21.30;97.67
65173;BME280;51758;52.218;5.172;2022-08-26T06:34:59;101543.72;;;21.40;97.42
65173;BME280;51758;52.218;5.172;2022-08-26T06:37:27;101544.97;;;21.49;97.05
65173;BME280;51758;52.218;5.172;2022-08-26T06:39:54;101539.88;;;21.59;96.29
65173;BME280;51758;52.218;5.172;2022-08-26T06:42:22;101542.72;;;21.69;96.05
65173;BME280;51758;52.218;5.172;2022-08-26T06:44:50;101540.84;;;21.81;95.18
65173;BME280;51758;52.218;5.172;2022-08-26T06:47:19;101541.44;;;21.84;94.61
65173;BME280;51758;52.218;5.172;2022-08-26T06:49:46;101546.16;;;21.81;94.32
65173;BME280;51758;52.218;5.172;2022-08-26T06:52:16;101551.72;;;21.80;94.05
65173;BME280;51758;52.218;5.172;2022-08-26T06:54:49;101552.44;;;21.75;93.71
65173;BME280;51758;52.218;5.172;2022-08-26T06:57:18;101561.91;;;21.71;93.67
65173;BME280;51758;52.218;5.172;2022-08-26T06:59:46;101555.34;;;21.62;94.13
65173;BME280;51758;52.218;5.172;2022-08-26T07:02:16;101556.97;;;21.63;94.76
65173;BME280;51758;52.218;5.172;2022-08-26T07:04:47;101559.50;;;21.58;94.68
65173;BME280;51758;52.218;5.172;2022-08-26T07:07:16;101579.38;;;21.56;94.97
65173;BME280;51758;52.218;5.172;2022-08-26T07:09:47;101580.09;;;21.51;95.33
65173;BME280;51758;52.218;5.172;2022-08-26T07:12:17;101571.63;;;21.54;94.46
65173;BME280;51758;52.218;5.172;2022-08-26T07:14:45;101572.66;;;21.53;94.90
65173;BME280;51758;52.218;5.172;2022-08-26T07:17:13;101583.78;;;21.50;95.20
65173;BME280;51758;52.218;5.172;2022-08-26T07:19:41;101586.53;;;21.55;94.81
65173;BME280;51758;52.218;5.172;2022-08-26T07:22:10;101590.72;;;21.39;95.57
65173;BME280;51758;52.218;5.172;2022-08-26T07:24:38;101584.59;;;21.39;95.01
65173;BME280;51758;52.218;5.172;2022-08-26T07:27:08;101586.91;;;21.47;94.57
65173;BME280;51758;52.218;5.172;2022-08-26T07:29:36;101589.78;;;21.45;94.45
65173;BME280;51758;52.218;5.172;2022-08-26T07:32:04;101587.69;;;21.48;94.48
65173;BME280;51758;52.218;5.172;2022-08-26T07:34:32;101593.59;;;21.50;94.39
65173;BME280;51758;52.218;5.172;2022-08-26T07:37:00;101599.22;;;21.53;93.70
65173;BME280;51758;52.218;5.172;2022-08-26T07:39:29;101593.59;;;21.50;93.66
65173;BME280;51758;52.218;5.172;2022-08-26T07:41:58;101597.16;;;21.55;93.44
65173;BME280;51758;52.218;5.172;2022-08-26T07:44:26;101597.06;;;21.62;93.46
65173;BME280;51758;52.218;5.172;2022-08-26T07:46:54;101595.78;;;21.64;93.47
65173;BME280;51758;52.218;5.172;2022-08-26T07:49:22;101605.47;;;21.70;93.61
65173;BME280;51758;52.218;5.172;2022-08-26T07:51:53;101607.75;;;21.78;93.13
65173;BME280;51758;52.218;5.172;2022-08-26T07:54:20;101605.91;;;21.79;92.31
65173;BME280;51758;52.218;5.172;2022-08-26T07:56:53;101611.13;;;21.74;92.92
65173;BME280;51758;52.218;5.172;2022-08-26T07:59:21;101614.38;;;21.76;92.88
65173;BME280;51758;52.218;5.172;2022-08-26T08:01:49;101620.50;;;21.76;92.71
65173;BME280;51758;52.218;5.172;2022-08-26T08:04:18;101618.88;;;21.75;92.66
65173;BME280;51758;52.218;5.172;2022-08-26T08:06:52;101621.31;;;21.77;92.55
65173;BME280;51758;52.218;5.172;2022-08-26T08:09:20;101626.38;;;21.78;92.76
65173;BME280;51758;52.218;5.172;2022-08-26T08:11:48;101626.47;;;21.84;92.51
65173;BME280;51758;52.218;5.172;2022-08-26T08:14:17;101627.44;;;21.77;92.05
65173;BME280;51758;52.218;5.172;2022-08-26T08:16:47;101627.31;;;21.72;92.16
65173;BME280;51758;52.218;5.172;2022-08-26T08:19:19;101618.53;;;21.72;92.28
65173;BME280;51758;52.218;5.172;2022-08-26T08:21:47;101614.69;;;21.79;92.69
65173;BME280;51758;52.218;5.172;2022-08-26T08:24:16;101611.94;;;21.86;92.01
65173;BME280;51758;52.218;5.172;2022-08-26T08:26:43;101608.00;;;21.89;91.84
65173;BME280;51758;52.218;5.172;2022-08-26T08:29:12;101611.69;;;21.99;91.68
65173;BME280;51758;52.218;5.172;2022-08-26T08:31:41;101606.47;;;22.04;91.39
65173;BME280;51758;52.218;5.172;2022-08-26T08:34:25;101614.94;;;22.01;90.73
65173;BME280;51758;52.218;5.172;2022-08-26T08:36:54;101623.22;;;22.05;90.07
65173;BME280;51758;52.218;5.172;2022-08-26T08:39:22;101628.19;;;22.13;90.78
65173;BME280;51758;52.218;5.172;2022-08-26T08:41:57;101624.59;;;22.19;90.13
65173;BME280;51758;52.218;5.172;2022-08-26T08:44:30;101629.56;;;22.27;89.28
65173;BME280;51758;52.218;5.172;2022-08-26T08:47:00;101635.28;;;22.36;89.33
65173;BME280;51758;52.218;5.172;2022-08-26T08:49:31;101629.50;;;22.39;89.10
65173;BME280;51758;52.218;5.172;2022-08-26T08:51:59;101626.06;;;22.27;88.38
65173;BME280;51758;52.218;5.172;2022-08-26T08:54:29;101619.47;;;22.29;88.46
65173;BME280;51758;52.218;5.172;2022-08-26T08:57:00;101621.19;;;22.35;88.21
65173;BME280;51758;52.218;5.172;2022-08-26T08:59:30;101621.84;;;22.42;87.86
65173;BME280;51758;52.218;5.172;2022-08-26T09:02:07;101629.94;;;22.47;87.83
65173;BME280;51758;52.218;5.172;2022-08-26T09:04:46;101644.19;;;22.41;87.92
65173;BME280;51758;52.218;5.172;2022-08-26T09:07:17;101638.88;;;22.41;88.25
65173;BME280;51758;52.218;5.172;2022-08-26T09:09:48;101635.19;;;22.59;87.74
65173;BME280;51758;52.218;5.172;2022-08-26T09:12:19;101625.69;;;22.63;86.79
65173;BME280;51758;52.218;5.172;2022-08-26T09:14:56;101637.69;;;22.77;86.30
65173;BME280;51758;52.218;5.172;2022-08-26T09:17:30;101637.63;;;22.89;85.46
65173;BME280;51758;52.218;5.172;2022-08-26T09:20:05;101620.53;;;23.02;85.02
65173;BME280;51758;52.218;5.172;2022-08-26T09:22:35;101643.59;;;22.96;85.02
65173;BME280;51758;52.218;5.172;2022-08-26T09:25:04;101633.19;;;23.11;84.30
65173;BME280;51758;52.218;5.172;2022-08-26T09:27:40;101635.63;;;23.30;84.18
65173;BME280;51758;52.218;5.172;2022-08-26T09:30:09;101634.75;;;23.24;83.86
65173;BME280;51758;52.218;5.172;2022-08-26T09:32:39;101633.34;;;23.21;82.92
65173;BME280;51758;52.218;5.172;2022-08-26T09:35:08;101638.69;;;23.21;82.55
65173;BME280;51758;52.218;5.172;2022-08-26T09:37:39;101639.16;;;23.18;83.42
65173;BME280;51758;52.218;5.172;2022-08-26T09:40:19;101631.03;;;23.08;83.61
65173;BME280;51758;52.218;5.172;2022-08-26T09:43:01;101638.38;;;23.01;82.82
65173;BME280;51758;52.218;5.172;2022-08-26T09:45:32;101648.59;;;22.93;82.96
65173;BME280;51758;52.218;5.172;2022-08-26T09:48:01;101540.44;;;22.13;83.70
65173;BME280;51758;52.218;5.172;2022-08-26T09:50:30;101639.31;;;22.78;83.68
65173;BME280;51758;52.218;5.172;2022-08-26T09:53:07;101635.38;;;22.69;84.18
65173;BME280;51758;52.218;5.172;2022-08-26T09:55:39;101642.22;;;22.77;84.68
65173;BME280;51758;52.218;5.172;2022-08-26T09:58:10;101644.50;;;22.73;84.86
65173;BME280;51758;52.218;5.172;2022-08-26T10:00:39;101642.03;;;22.55;84.98
65173;BME280;51758;52.218;5.172;2022-08-26T10:03:09;101640.19;;;22.56;85.45
65173;BME280;51758;52.218;5.172;2022-08-26T10:05:43;101636.97;;;22.54;85.52
65173;BME280;51758;52.218;5.172;2022-08-26T10:08:21;101636.25;;;22.58;86.68
65173;BME280;51758;52.218;5.172;2022-08-26T10:10:50;101638.91;;;22.58;87.41
65173;BME280;51758;52.218;5.172;2022-08-26T10:13:21;101640.63;;;22.64;87.77
65173;BME280;51758;52.218;5.172;2022-08-26T10:15:51;101642.59;;;22.57;88.54
65173;BME280;51758;52.218;5.172;2022-08-26T10:18:28;101651.75;;;22.61;89.15
65173;BME280;51758;52.218;5.172;2022-08-26T10:21:01;101645.25;;;22.57;88.81
65173;BME280;51758;52.218;5.172;2022-08-26T10:23:33;101646.47;;;22.49;89.90
65173;BME280;51758;52.218;5.172;2022-08-26T10:26:10;101654.53;;;22.55;90.25
65173;BME280;51758;52.218;5.172;2022-08-26T10:28:40;101644.19;;;22.41;88.66
65173;BME280;51758;52.218;5.172;2022-08-26T10:31:19;101647.31;;;22.38;89.25
65173;BME280;51758;52.218;5.172;2022-08-26T10:33:55;101642.56;;;22.40;87.04
65173;BME280;51758;52.218;5.172;2022-08-26T10:36:26;101651.59;;;22.39;86.72
65173;BME280;51758;52.218;5.172;2022-08-26T10:39:35;101655.50;;;22.48;86.68
65173;BME280;51758;52.218;5.172;2022-08-26T10:42:07;101642.38;;;22.59;86.04
65173;BME280;51758;52.218;5.172;2022-08-26T10:44:36;101643.59;;;22.68;86.41
65173;BME280;51758;52.218;5.172;2022-08-26T10:47:11;101642.25;;;22.65;85.06
65173;BME280;51758;52.218;5.172;2022-08-26T10:49:42;101637.06;;;22.59;84.80
65173;BME280;51758;52.218;5.172;2022-08-26T10:52:12;101645.44;;;22.79;84.90
65173;BME280;51758;52.218;5.172;2022-08-26T10:54:42;101642.84;;;22.84;84.32
65173;BME280;51758;52.218;5.172;2022-08-26T10:57:12;101636.34;;;22.92;84.39
65173;BME280;51758;52.218;5.172;2022-08-26T10:59:46;101634.31;;;22.82;83.28
65173;BME280;51758;52.218;5.172;2022-08-26T11:02:18;101641.69;;;22.92;83.79
65173;BME280;51758;52.218;5.172;2022-08-26T11:04:53;101643.19;;;22.88;83.44
65173;BME280;51758;52.218;5.172;2022-08-26T11:07:31;101651.88;;;22.83;82.92
65173;BME280;51758;52.218;5.172;2022-08-26T11:09:59;101652.84;;;22.77;83.23
65173;BME280;51758;52.218;5.172;2022-08-26T11:17:59;101650.34;;;22.59;82.83
65173;BME280;51758;52.218;5.172;2022-08-26T11:20:32;101646.19;;;22.63;83.44
65173;BME280;51758;52.218;5.172;2022-08-26T11:28:30;101656.41;;;22.82;84.45
65173;BME280;51758;52.218;5.172;2022-08-26T11:30:59;101651.06;;;22.82;83.89
65173;BME280;51758;52.218;5.172;2022-08-26T11:36:34;101664.09;;;22.79;83.75
65173;BME280;51758;52.218;5.172;2022-08-26T11:39:03;101655.94;;;22.85;83.81
65173;BME280;51758;52.218;5.172;2022-08-26T11:41:41;101651.41;;;22.86;83.72
65173;BME280;51758;52.218;5.172;2022-08-26T11:44:09;101649.59;;;22.75;83.79
65173;BME280;51758;52.218;5.172;2022-08-26T11:46:37;101651.31;;;22.81;83.72
65173;BME280;51758;52.218;5.172;2022-08-26T11:49:05;101652.47;;;22.85;83.33
65173;BME280;51758;52.218;5.172;2022-08-26T11:51:48;101654.41;;;22.90;82.28
65173;BME280;51758;52.218;5.172;2022-08-26T11:54:16;101654.56;;;22.83;83.04
65173;BME280;51758;52.218;5.172;2022-08-26T11:57:00;101648.34;;;22.94;83.04
65173;BME280;51758;52.218;5.172;2022-08-26T11:59:37;101650.94;;;23.06;82.33
65173;BME280;51758;52.218;5.172;2022-08-26T12:02:09;101651.91;;;23.00;82.44
65173;BME280;51758;52.218;5.172;2022-08-26T12:04:39;101647.81;;;23.26;82.91
65173;BME280;51758;52.218;5.172;2022-08-26T12:07:09;101652.25;;;23.37;82.85
65173;BME280;51758;52.218;5.172;2022-08-26T12:09:49;101648.31;;;23.39;81.93
65173;BME280;51758;52.218;5.172;2022-08-26T12:12:20;101647.56;;;23.44;81.31
65173;BME280;51758;52.218;5.172;2022-08-26T12:15:03;101644.56;;;23.57;81.13
65173;BME280;51758;52.218;5.172;2022-08-26T12:17:31;101639.75;;;23.54;80.58
65173;BME280;51758;52.218;5.172;2022-08-26T12:19:58;101645.41;;;23.41;79.94
65173;BME280;51758;52.218;5.172;2022-08-26T12:22:29;101642.22;;;23.44;81.02
65173;BME280;51758;52.218;5.172;2022-08-26T12:25:00;101644.25;;;23.20;79.03
65173;BME280;51758;52.218;5.172;2022-08-26T12:27:30;101645.94;;;22.93;79.61
65173;BME280;51758;52.218;5.172;2022-08-26T12:30:00;101643.09;;;22.82;80.01
65173;BME280;51758;52.218;5.172;2022-08-26T12:32:32;101662.91;;;22.75;81.27
65173;BME280;51758;52.218;5.172;2022-08-26T12:35:01;101661.19;;;22.69;82.08
65173;BME280;51758;52.218;5.172;2022-08-26T12:37:37;101659.16;;;22.59;82.74
65173;BME280;51758;52.218;5.172;2022-08-26T12:40:26;101507.16;;;21.70;82.89
65173;BME280;51758;52.218;5.172;2022-08-26T12:42:54;101666.25;;;22.82;83.09
65173;BME280;51758;52.218;5.172;2022-08-26T12:45:25;101660.06;;;22.93;82.85
65173;BME280;51758;52.218;5.172;2022-08-26T12:47:55;101663.13;;;23.18;83.02
65173;BME280;51758;52.218;5.172;2022-08-26T12:50:25;101676.63;;;23.45;81.70
65173;BME280;51758;52.218;5.172;2022-08-26T12:52:56;101664.03;;;23.41;81.02
65173;BME280;51758;52.218;5.172;2022-08-26T12:55:25;101659.47;;;23.53;80.58
65173;BME280;51758;52.218;5.172;2022-08-26T12:58:10;101667.84;;;23.62;80.21
65173;BME280;51758;52.218;5.172;2022-08-26T13:00:38;101660.47;;;23.69;79.03
65173;BME280;51758;52.218;5.172;2022-08-26T13:05:50;101665.38;;;23.55;78.86
65173;BME280;51758;52.218;5.172;2022-08-26T13:08:25;101657.59;;;23.53;79.84
65173;BME280;51758;52.218;5.172;2022-08-26T13:11:00;101663.88;;;23.64;78.94
65173;BME280;51758;52.218;5.172;2022-08-26T13:13:28;101659.19;;;23.71;78.80
65173;BME280;51758;52.218;5.172;2022-08-26T13:15:55;101661.47;;;23.63;78.40
65173;BME280;51758;52.218;5.172;2022-08-26T13:18:24;101652.88;;;23.44;79.99
65173;BME280;51758;52.218;5.172;2022-08-26T13:20:51;101504.41;;;22.50;80.64